Time;durP1;ratioP1;P1;durP2;ratioP2;P2;SDS_P1;SDS_P2;PMS_P1;PMS_P2;Temp;Humidity;BMP_temperature;BMP_pressure;BME280_temperature;BME280_humidity;BME280_pressure;Samples;Min_cycle;Max_cycle;Signal;HPM_P1;HPM_P2
2022/09/08 00:02:16;;;;;;;;;;;;;;;;;;5012110;28;7111;-83
2022/09/08 00:04:42;;;;;;;;;;;;;;;;;;5011680;28;7027;-83
2022/09/08 00:07:08;;;;;;;;;;;;;;;;;;5012081;28;8856;-82
2022/09/08 00:09:34;;;;;;;;;;;;;;;;;;5011784;28;6965;-83
2022/09/08 00:12:01;;;;;;;;;;;;;;;;;;5011609;28;8395;-82
2022/09/08 00:14:28;;;;;;;;;;;;;;;;;;5012109;28;7359;-83
2022/09/08 00:16:54;;;;;;;;;;;;;;;;;;5011636;28;8713;-83
2022/09/08 00:19:20;;;;;;;;;;;;;;;;;;5011646;28;6999;-82
2022/09/08 00:21:45;;;;;;;;;;;;;;;;;;5010907;28;8592;-83
2022/09/08 00:24:11;;;;;;;;;;;;;;;;;;5011438;28;7128;-82
2022/09/08 00:26:36;;;;;;;;;;;;;;;;;;5012048;28;8467;-83
2022/09/08 00:29:03;;;;;;;;;;;;;;;;;;5011313;28;8397;-83
2022/09/08 00:31:28;;;;;;;;;;;;;;;;;;5011382;28;8603;-82
2022/09/08 00:33:54;;;;;;;;;;;;;;;;;;5011252;28;7553;-82
2022/09/08 00:36:20;;;;;;;;;;;;;;;;;;5011185;28;8376;-82
2022/09/08 00:38:50;;;;;;;;;;;;;;;;;;5011676;28;7146;-83
2022/09/08 00:41:16;;;;;;;;;;;;;;;;;;5010430;28;7157;-83
2022/09/08 00:43:44;;;;;;;;;;;;;;;;;;5011205;28;8462;-82
2022/09/08 00:46:11;;;;;;;;;;;;;;;;;;5011274;28;8452;-83
2022/09/08 00:48:42;;;;;;;;;;;;;;;;;;5011003;28;8439;-82
2022/09/08 00:51:08;;;;;;;;;;;;;;;;;;5011080;28;8440;-83
2022/09/08 00:53:40;;;;;;;;;;;;;;;;;;5010964;28;9370;-81
2022/09/08 00:56:06;;;;;;;;;;;;;;;;;;5011136;28;8525;-82
2022/09/08 00:58:37;;;;;;;;;;;;;;;;;;5010681;28;8708;-81
2022/09/08 01:01:04;;;;;;;;;;;;;;;;;;5011009;28;8404;-81
2022/09/08 01:03:33;;;;;;;;;;;;;;;;;;5010639;28;7323;-84
2022/09/08 01:06:11;;;;;;;;;;;;;;;;;;5010917;28;7182;-84
2022/09/08 01:15:02;;;;;;;;;;;;;;;;;;4995895;28;7007;-82
2022/09/08 01:17:30;;;;;;;;;;;;;;;;;;4938669;29;7140;-82
2022/09/08 01:19:58;;;;;;;;;;;;;;;;;;4955146;29;7042;-81
2022/09/08 01:22:26;;;;;;;;;;;;;;;;;;4954598;29;8389;-83
2022/09/08 01:25:01;;;;;;;;;;;;;;;;;;4938555;29;7174;-82
2022/09/08 01:27:30;;;;;;;;;;;;;;;;;;4954566;29;8572;-82
2022/09/08 01:29:59;;;;;;;;;;;;;;;;;;4955032;29;8488;-83
2022/09/08 01:32:29;;;;;;;;;;;;;;;;;;4954471;29;8724;-83
2022/09/08 01:34:54;;;;;;;;;;;;;;;;;;4954576;29;8404;-83
2022/09/08 01:37:20;;;;;;;;;;;;;;;;;;4954590;29;8690;-82
2022/09/08 01:39:45;;;;;;;;;;;;;;;;;;4954416;29;7005;-83
2022/09/08 01:42:11;;;;;;;;;;;;;;;;;;4954647;29;8391;-83
2022/09/08 01:44:36;;;;;;;;;;;;;;;;;;4954711;29;8689;-84
2022/09/08 01:47:03;;;;;;;;;;;;;;;;;;4954503;29;8401;-81
2022/09/08 01:49:28;;;;;;;;;;;;;;;;;;4954607;29;7073;-83
2022/09/08 01:51:54;;;;;;;;;;;;;;;;;;4983694;28;7185;-83
2022/09/08 01:54:20;;;;;;;;;;;;;;;;;;5014280;28;7022;-81
2022/09/08 01:56:45;;;;;;;;;;;;;;;;;;5014108;28;8410;-82
2022/09/08 01:59:11;;;;;;;;;;;;;;;;;;5014308;28;8400;-83
2022/09/08 02:01:36;;;;;;;;;;;;;;;;;;5014483;28;8794;-83
2022/09/08 02:04:03;;;;;;;;;;;;;;;;;;5013950;28;7127;-83
2022/09/08 02:06:30;;;;;;;;;;;;;;;;;;5014669;28;7038;-83
2022/09/08 02:08:56;;;;;;;;;;;;;;;;;;5014183;28;7502;-84
2022/09/08 02:11:22;;;;;;;;;;;;;;;;;;5013575;28;9014;-83
2022/09/08 02:13:48;;;;;;;;;;;;;;;;;;5014242;28;7102;-83
2022/09/08 02:16:14;;;;;;;;;;;;;;;;;;4997618;28;8396;-83
2022/09/08 02:18:40;;;;;;;;;;;;;;;;;;5013965;28;7362;-84
2022/09/08 02:21:08;;;;;;;;;;;;;;;;;;5013597;28;8604;-83
2022/09/08 02:23:34;;;;;;;;;;;;;;;;;;5013823;28;8413;-83
2022/09/08 02:26:00;;;;;;;;;;;;;;;;;;5013800;28;8384;-83
2022/09/08 02:28:25;;;;;;;;;;;;;;;;;;5014219;28;8388;-81
2022/09/08 02:30:56;;;;;;;;;;;;;;;;;;5013919;28;8316;-83
2022/09/08 02:33:21;;;;;;;;;;;;;;;;;;5013779;28;8541;-83
2022/09/08 02:35:47;;;;;;;;;;;;;;;;;;5014351;28;6995;-84
2022/09/08 02:38:13;;;;;;;;;;;;;;;;;;5013411;28;8382;-83
2022/09/08 02:40:38;;;;;;;;;;;;;;;;;;5014559;28;7011;-81
2022/09/08 02:43:04;;;;;;;;;;;;;;;;;;5013251;28;8302;-83
2022/09/08 02:45:30;;;;;;;;;;;;;;;;;;5013124;28;8377;-83
2022/09/08 02:47:58;;;;;;;;;;;;;;;;;;5013193;28;8480;-82
2022/09/08 02:52:51;;;;;;;;;;;;;;;;;;4998261;28;8058;-83
2022/09/08 02:55:17;;;;;;;;;;;;;;;;;;5013858;28;7235;-82
2022/09/08 02:57:43;;;;;;;;;;;;;;;;;;5012788;28;8400;-83
2022/09/08 03:00:10;;;;;;;;;;;;;;;;;;5012746;28;7389;-82
2022/09/08 03:02:35;;;;;;;;;;;;;;;;;;5012159;28;8880;-82
2022/09/08 03:05:01;;;;;;;;;;;;;;;;;;5012523;28;8772;-83
2022/09/08 03:07:26;;;;;;;;;;;;;;;;;;5013167;28;8396;-82
2022/09/08 03:09:53;;;;;;;;;;;;;;;;;;5013529;28;9784;-83
2022/09/08 03:12:18;;;;;;;;;;;;;;;;;;5012632;28;7267;-82
2022/09/08 03:14:44;;;;;;;;;;;;;;;;;;5012759;28;7000;-82
2022/09/08 03:17:10;;;;;;;;;;;;;;;;;;5013040;28;8449;-83
2022/09/08 03:19:35;;;;;;;;;;;;;;;;;;5012494;28;7214;-84
2022/09/08 03:22:01;;;;;;;;;;;;;;;;;;5012149;28;8819;-82
2022/09/08 03:24:27;;;;;;;;;;;;;;;;;;5013411;28;7138;-84
2022/09/08 03:26:52;;;;;;;;;;;;;;;;;;5012618;28;8502;-82
2022/09/08 03:29:18;;;;;;;;;;;;;;;;;;5012885;28;8299;-81
2022/09/08 03:31:43;;;;;;;;;;;;;;;;;;5012436;28;8420;-83
2022/09/08 03:34:09;;;;;;;;;;;;;;;;;;5012433;28;7149;-83
2022/09/08 03:36:34;;;;;;;;;;;;;;;;;;5014303;28;8397;-82
2022/09/08 03:39:01;;;;;;;;;;;;;;;;;;5012038;28;8434;-82
2022/09/08 03:41:27;;;;;;;;;;;;;;;;;;5013270;28;7164;-82
2022/09/08 03:43:52;;;;;;;;;;;;;;;;;;5012461;28;7063;-82
2022/09/08 03:46:18;;;;;;;;;;;;;;;;;;5012262;28;7347;-81
2022/09/08 03:48:44;;;;;;;;;;;;;;;;;;5012267;28;8417;-82
2022/09/08 03:51:25;;;;;;;;;;;;;;;;;;5012286;28;8428;-82
2022/09/08 03:53:52;;;;;;;;;;;;;;;;;;5011749;28;9188;-83
2022/09/08 03:56:18;;;;;;;;;;;;;;;;;;5012181;28;7174;-84
2022/09/08 03:58:44;;;;;;;;;;;;;;;;;;5011944;28;8768;-83
2022/09/08 04:01:14;;;;;;;;;;;;;;;;;;5011845;28;7369;-83
2022/09/08 04:03:40;;;;;;;;;;;;;;;;;;5011868;28;7161;-83
2022/09/08 04:06:06;;;;;;;;;;;;;;;;;;5011733;28;7136;-83
2022/09/08 04:08:32;;;;;;;;;;;;;;;;;;5012129;28;7072;-81
2022/09/08 04:10:58;;;;;;;;;;;;;;;;;;5012799;28;7044;-84
2022/09/08 04:13:23;;;;;;;;;;;;;;;;;;5011838;28;7137;-83
2022/09/08 04:15:49;;;;;;;;;;;;;;;;;;5011325;28;7161;-84
2022/09/08 04:18:15;;;;;;;;;;;;;;;;;;5011602;28;8473;-83
2022/09/08 04:20:41;;;;;;;;;;;;;;;;;;5011515;28;8697;-83
2022/09/08 04:23:07;;;;;;;;;;;;;;;;;;5011253;28;7231;-83
2022/09/08 04:25:33;;;;;;;;;;;;;;;;;;5011603;28;7074;-83
2022/09/08 04:27:59;;;;;;;;;;;;;;;;;;5011752;28;8409;-84
2022/09/08 04:30:25;;;;;;;;;;;;;;;;;;5011299;28;8467;-83
2022/09/08 04:32:50;;;;;;;;;;;;;;;;;;5011392;28;8479;-83
2022/09/08 04:35:16;;;;;;;;;;;;;;;;;;5011096;28;8414;-81
2022/09/08 04:37:42;;;;;;;;;;;;;;;;;;5010946;28;7130;-81
2022/09/08 04:40:08;;;;;;;;;;;;;;;;;;5012114;28;7306;-81
2022/09/08 04:42:35;;;;;;;;;;;;;;;;;;5011705;28;8693;-82
2022/09/08 04:45:01;;;;;;;;;;;;;;;;;;5011644;28;8458;-83
2022/09/08 04:47:27;;;;;;;;;;;;;;;;;;5011306;28;7113;-83
2022/09/08 04:49:53;;;;;;;;;;;;;;;;;;5010751;28;8754;-82
2022/09/08 04:52:20;;;;;;;;;;;;;;;;;;5011327;28;7442;-83
2022/09/08 04:54:46;;;;;;;;;;;;;;;;;;5011573;28;8794;-81
2022/09/08 04:57:13;;;;;;;;;;;;;;;;;;5011051;28;9507;-82
2022/09/08 04:59:39;;;;;;;;;;;;;;;;;;5010777;28;7253;-84
2022/09/08 05:02:05;;;;;;;;;;;;;;;;;;5011322;28;7174;-83
2022/09/08 05:04:30;;;;;;;;;;;;;;;;;;5010801;28;8797;-83
2022/09/08 05:06:56;;;;;;;;;;;;;;;;;;5010938;28;7147;-83
2022/09/08 05:09:22;;;;;;;;;;;;;;;;;;5010540;28;8421;-84
2022/09/08 05:11:47;;;;;;;;;;;;;;;;;;5011368;28;7427;-83
2022/09/08 05:14:13;;;;;;;;;;;;;;;;;;5010797;28;8453;-81
2022/09/08 05:16:38;;;;;;;;;;;;;;;;;;5010793;28;8490;-82
2022/09/08 05:19:05;;;;;;;;;;;;;;;;;;5010734;28;7183;-83
2022/09/08 05:21:33;;;;;;;;;;;;;;;;;;4994263;28;7183;-83
2022/09/08 05:24:00;;;;;;;;;;;;;;;;;;5010741;28;8737;-81
2022/09/08 05:26:27;;;;;;;;;;;;;;;;;;5012677;28;7059;-83
2022/09/08 05:28:53;;;;;;;;;;;;;;;;;;5014812;28;8457;-86
2022/09/08 05:31:24;;;;;;;;;;;;;;;;;;5015143;28;7190;-88
2022/09/08 05:33:50;;;;;;;;;;;;;;;;;;5014597;28;7432;-87
2022/09/08 05:36:24;;;;;;;;;;;;;;;;;;5014803;28;7163;-84
2022/09/08 05:38:51;;;;;;;;;;;;;;;;;;5014601;28;7078;-84
2022/09/08 05:41:17;;;;;;;;;;;;;;;;;;5014283;28;8490;-86
2022/09/08 05:43:43;;;;;;;;;;;;;;;;;;5014340;28;8419;-84
2022/09/08 05:46:09;;;;;;;;;;;;;;;;;;5014225;28;8788;-84
2022/09/08 05:48:36;;;;;;;;;;;;;;;;;;5014386;28;8670;-85
2022/09/08 05:51:07;;;;;;;;;;;;;;;;;;5014183;28;7420;-85
2022/09/08 05:53:32;;;;;;;;;;;;;;;;;;5014391;28;7135;-84
2022/09/08 05:56:00;;;;;;;;;;;;;;;;;;5014256;28;7022;-85
2022/09/08 05:58:26;;;;;;;;;;;;;;;;;;5014414;28;8489;-85
2022/09/08 06:01:11;;;;;;;;;;;;;;;;;;5014177;28;7136;-84
2022/09/08 06:03:37;;;;;;;;;;;;;;;;;;5014249;28;7174;-85
2022/09/08 06:06:04;;;;;;;;;;;;;;;;;;5014303;28;8420;-86
2022/09/08 06:08:31;;;;;;;;;;;;;;;;;;5014161;28;7182;-85
2022/09/08 06:10:56;;;;;;;;;;;;;;;;;;5014360;28;7059;-85
2022/09/08 06:13:22;;;;;;;;;;;;;;;;;;5013911;28;8394;-85
2022/09/08 06:15:49;;;;;;;;;;;;;;;;;;5013691;28;8463;-86
2022/09/08 06:18:19;;;;;;;;;;;;;;;;;;5014103;28;7381;-86
2022/09/08 06:20:45;;;;;;;;;;;;;;;;;;5013939;28;8824;-86
2022/09/08 06:23:12;;;;;;;;;;;;;;;;;;5011955;28;8532;-85
2022/09/08 06:25:38;;;;;;;;;;;;;;;;;;5013586;28;8522;-86
2022/09/08 06:28:12;;;;;;;;;;;;;;;;;;5013734;28;7048;-85
2022/09/08 06:30:37;;;;;;;;;;;;;;;;;;5014412;28;8386;-85
2022/09/08 06:33:14;;;;;;;;;;;;;;;;;;5013529;28;8410;-85
2022/09/08 06:35:50;;;;;;;;;;;;;;;;;;5014355;28;8373;-86
2022/09/08 06:38:24;;;;;;;;;;;;;;;;;;5012028;28;8648;-85
2022/09/08 06:40:58;;;;;;;;;;;;;;;;;;5013408;28;8588;-85
2022/09/08 06:43:32;;;;;;;;;;;;;;;;;;5013419;28;7161;-85
2022/09/08 06:46:06;;;;;;;;;;;;;;;;;;4996985;28;8403;-86
2022/09/08 06:48:37;;;;;;;;;;;;;;;;;;5014145;28;7047;-86
2022/09/08 06:51:09;;;;;;;;;;;;;;;;;;5013103;28;7168;-87
2022/09/08 06:53:40;;;;;;;;;;;;;;;;;;4996678;28;7254;-86
2022/09/08 06:56:19;;;;;;;;;;;;;;;;;;5013306;28;8735;-86
2022/09/08 06:58:46;;;;;;;;;;;;;;;;;;5013241;28;7070;-85
2022/09/08 07:01:24;;;;;;;;;;;;;;;;;;5013078;28;8434;-86
2022/09/08 07:04:05;;;;;;;;;;;;;;;;;;5013061;28;8414;-85
2022/09/08 07:06:46;;;;;;;;;;;;;;;;;;4996338;28;8911;-87
2022/09/08 07:09:30;;;;;;;;;;;;;;;;;;5012899;28;7268;-86
2022/09/08 07:12:06;;;;;;;;;;;;;;;;;;4996673;28;8481;-85
2022/09/08 07:14:34;;;;;;;;;;;;;;;;;;5013638;28;8737;-86
2022/09/08 07:17:09;;;;;;;;;;;;;;;;;;5013187;28;8458;-86
2022/09/08 07:19:34;;;;;;;;;;;;;;;;;;5013251;28;8483;-86
2022/09/08 07:22:26;;;;;;;;;;;;;;;;;;5012311;28;8403;-83
2022/09/08 07:24:56;;;;;;;;;;;;;;;;;;4973649;28;7207;-82
2022/09/08 07:27:25;;;;;;;;;;;;;;;;;;5013415;28;7116;-84
2022/09/08 07:29:56;;;;;;;;;;;;;;;;;;5012848;28;7176;-84
2022/09/08 07:32:28;;;;;;;;;;;;;;;;;;5012230;28;7503;-85
2022/09/08 07:34:58;;;;;;;;;;;;;;;;;;5012591;28;8655;-84
2022/09/08 07:37:35;;;;;;;;;;;;;;;;;;5012281;28;8429;-84
2022/09/08 07:40:15;;;;;;;;;;;;;;;;;;5013275;28;7067;-84
2022/09/08 07:42:40;;;;;;;;;;;;;;;;;;5012154;28;8479;-84
2022/09/08 07:45:10;;;;;;;;;;;;;;;;;;5012353;28;8361;-84
2022/09/08 07:47:42;;;;;;;;;;;;;;;;;;5012203;28;8622;-84
2022/09/08 07:50:22;;;;;;;;;;;;;;;;;;5012448;28;7189;-84
2022/09/08 07:52:57;;;;;;;;;;;;;;;;;;5011863;28;7185;-84
2022/09/08 07:55:26;;;;;;;;;;;;;;;;;;5011905;28;8447;-85
2022/09/08 07:58:00;;;;;;;;;;;;;;;;;;5012065;28;7088;-85
2022/09/08 08:00:29;;;;;;;;;;;;;;;;;;5012326;28;8740;-85
2022/09/08 08:03:07;;;;;;;;;;;;;;;;;;5011942;28;8500;-86
2022/09/08 08:05:39;;;;;;;;;;;;;;;;;;5012396;28;7076;-85
2022/09/08 08:08:05;;;;;;;;;;;;;;;;;;5012410;28;8450;-87
2022/09/08 08:10:40;;;;;;;;;;;;;;;;;;5011752;28;7183;-85
2022/09/08 08:13:16;;;;;;;;;;;;;;;;;;5011773;28;7113;-83
2022/09/08 08:15:46;;;;;;;;;;;;;;;;;;5011816;28;8300;-85
2022/09/08 08:18:21;;;;;;;;;;;;;;;;;;5011461;28;7179;-84
2022/09/08 08:20:51;;;;;;;;;;;;;;;;;;5011840;28;7070;-85
2022/09/08 08:23:40;;;;;;;;;;;;;;;;;;5011183;28;7181;-84
2022/09/08 08:26:15;;;;;;;;;;;;;;;;;;5011853;28;8720;-82
2022/09/08 08:28:45;;;;;;;;;;;;;;;;;;5011959;28;7180;-84
2022/09/08 08:31:33;;;;;;;;;;;;;;;;;;5011224;28;8430;-83
2022/09/08 08:34:25;;;;;;;;;;;;;;;;;;5011137;28;8416;-83
2022/09/08 08:36:53;;;;;;;;;;;;;;;;;;4991681;28;7217;-83
2022/09/08 08:39:21;;;;;;;;;;;;;;;;;;5011442;28;8398;-83
2022/09/08 08:41:46;;;;;;;;;;;;;;;;;;5011265;28;8410;-84
2022/09/08 08:44:30;;;;;;;;;;;;;;;;;;5011416;28;8401;-83
2022/09/08 08:47:15;;;;;;;;;;;;;;;;;;4994602;28;7516;-84
2022/09/08 08:49:40;;;;;;;;;;;;;;;;;;4995241;28;8296;-83
2022/09/08 08:52:15;;;;;;;;;;;;;;;;;;4994826;28;8559;-83
2022/09/08 08:54:52;;;;;;;;;;;;;;;;;;5010902;28;7050;-81
2022/09/08 08:57:18;;;;;;;;;;;;;;;;;;5010734;28;8697;-83
2022/09/08 09:00:02;;;;;;;;;;;;;;;;;;4994668;28;8403;-83
2022/09/08 09:02:31;;;;;;;;;;;;;;;;;;4994002;28;7048;-83
2022/09/08 09:04:59;;;;;;;;;;;;;;;;;;4994642;28;8374;-82
2022/09/08 09:07:28;;;;;;;;;;;;;;;;;;4994381;28;8424;-84
2022/09/08 09:10:12;;;;;;;;;;;;;;;;;;4994462;28;8481;-84
2022/09/08 09:12:37;;;;;;;;;;;;;;;;;;4994523;28;8428;-82
2022/09/08 09:15:06;;;;;;;;;;;;;;;;;;4994393;28;8410;-83
2022/09/08 09:17:46;;;;;;;;;;;;;;;;;;4994136;28;8364;-83
2022/09/08 09:20:15;;;;;;;;;;;;;;;;;;4995236;28;7045;-83
2022/09/08 09:22:53;;;;;;;;;;;;;;;;;;4994142;28;7066;-84
2022/09/08 09:25:28;;;;;;;;;;;;;;;;;;5010826;28;7409;-83
2022/09/08 09:27:59;;;;;;;;;;;;;;;;;;5010763;28;8352;-82
2022/09/08 09:30:43;;;;;;;;;;;;;;;;;;4994119;28;7164;-82
2022/09/08 09:33:27;;;;;;;;;;;;;;;;;;4994521;28;7268;-83
2022/09/08 09:35:53;;;;;;;;;;;;;;;;;;4993964;28;8448;-83
2022/09/08 09:38:24;;;;;;;;;;;;;;;;;;4994142;28;7159;-83
2022/09/08 09:41:05;;;;;;;;;;;;;;;;;;4993941;28;8546;-83
2022/09/08 09:43:31;;;;;;;;;;;;;;;;;;4995765;28;7037;-83
2022/09/08 09:45:59;;;;;;;;;;;;;;;;;;4994789;28;8305;-81
2022/09/08 09:48:37;;;;;;;;;;;;;;;;;;4994205;28;8451;-83
2022/09/08 09:51:02;;;;;;;;;;;;;;;;;;4993861;28;8422;-83
2022/09/08 09:53:34;;;;;;;;;;;;;;;;;;4994141;28;8430;-83
2022/09/08 09:56:17;;;;;;;;;;;;;;;;;;4994492;28;8544;-81
2022/09/08 09:58:55;;;;;;;;;;;;;;;;;;5010285;28;8868;-82
2022/09/08 10:01:20;;;;;;;;;;;;;;;;;;4993692;28;8412;-81
2022/09/08 10:03:49;;;;;;;;;;;;;;;;;;4992585;28;8456;-83
2022/09/08 10:06:23;;;;;;;;;;;;;;;;;;4992465;28;8422;-82
2022/09/08 10:09:06;;;;;;;;;;;;;;;;;;5008823;28;8431;-82
2022/09/08 10:11:32;;;;;;;;;;;;;;;;;;5010447;28;8408;-85
2022/09/08 10:14:01;;;;;;;;;;;;;;;;;;4997172;28;7117;-84
2022/09/08 10:16:35;;;;;;;;;;;;;;;;;;4997789;28;8398;-84
2022/09/08 10:19:16;;;;;;;;;;;;;;;;;;4998013;28;8906;-82
2022/09/08 10:22:00;;;;;;;;;;;;;;;;;;5013985;28;8498;-84
2022/09/08 10:24:41;;;;;;;;;;;;;;;;;;4997406;28;8670;-82
2022/09/08 10:27:26;;;;;;;;;;;;;;;;;;5013915;28;8705;-83
2022/09/08 10:30:08;;;;;;;;;;;;;;;;;;4997374;28;7463;-83
2022/09/08 10:32:41;;;;;;;;;;;;;;;;;;5013069;28;7060;-83
2022/09/08 10:35:25;;;;;;;;;;;;;;;;;;4997432;28;8810;-84
2022/09/08 10:38:00;;;;;;;;;;;;;;;;;;4997650;28;8365;-84
2022/09/08 10:40:35;;;;;;;;;;;;;;;;;;4996889;28;7201;-83
2022/09/08 10:43:20;;;;;;;;;;;;;;;;;;4997710;28;8312;-83
2022/09/08 10:46:05;;;;;;;;;;;;;;;;;;5012901;28;8412;-84
2022/09/08 10:48:54;;;;;;;;;;;;;;;;;;4997252;28;8676;-84
2022/09/08 10:51:22;;;;;;;;;;;;;;;;;;5013699;28;7438;-82
2022/09/08 10:53:48;;;;;;;;;;;;;;;;;;4996822;28;7035;-83
2022/09/08 10:56:15;;;;;;;;;;;;;;;;;;4997016;28;8410;-84
2022/09/08 10:58:53;;;;;;;;;;;;;;;;;;5013274;28;7157;-86
2022/09/08 11:01:50;;;;;;;;;;;;;;;;;;4996946;28;8441;-84
2022/09/08 11:04:34;;;;;;;;;;;;;;;;;;5012855;28;8681;-82
2022/09/08 11:07:05;;;;;;;;;;;;;;;;;;4997159;28;8816;-86
2022/09/08 11:09:54;;;;;;;;;;;;;;;;;;4996363;28;7417;-83
2022/09/08 11:12:38;;;;;;;;;;;;;;;;;;5011427;28;8966;-84
2022/09/08 11:15:22;;;;;;;;;;;;;;;;;;4996462;28;8437;-84
2022/09/08 11:17:50;;;;;;;;;;;;;;;;;;4996610;28;7065;-84
2022/09/08 11:20:21;;;;;;;;;;;;;;;;;;5012533;28;8724;-82
2022/09/08 11:22:56;;;;;;;;;;;;;;;;;;4995963;28;8434;-83
2022/09/08 11:25:30;;;;;;;;;;;;;;;;;;4995345;28;7178;-80
2022/09/08 11:28:04;;;;;;;;;;;;;;;;;;4996296;28;8913;-84
2022/09/08 11:30:40;;;;;;;;;;;;;;;;;;4995804;28;7175;-84
2022/09/08 11:33:09;;;;;;;;;;;;;;;;;;5013099;28;8421;-83
2022/09/08 11:35:45;;;;;;;;;;;;;;;;;;4995909;28;9309;-82
2022/09/08 11:38:14;;;;;;;;;;;;;;;;;;5012348;28;7189;-82
2022/09/08 11:40:59;;;;;;;;;;;;;;;;;;4995987;28;8665;-83
2022/09/08 11:43:24;;;;;;;;;;;;;;;;;;4996011;28;8445;-82
2022/09/08 11:46:08;;;;;;;;;;;;;;;;;;4996561;28;8442;-83
2022/09/08 11:48:43;;;;;;;;;;;;;;;;;;4995633;28;8434;-83
2022/09/08 11:51:21;;;;;;;;;;;;;;;;;;4995609;28;7298;-83
2022/09/08 11:53:59;;;;;;;;;;;;;;;;;;4996155;28;8797;-85
2022/09/08 11:56:43;;;;;;;;;;;;;;;;;;4995856;28;8445;-83
2022/09/08 11:59:11;;;;;;;;;;;;;;;;;;4995923;28;8703;-83
2022/09/08 12:01:37;;;;;;;;;;;;;;;;;;4995730;28;7175;-83
2022/09/08 12:04:09;;;;;;;;;;;;;;;;;;4995344;28;7356;-83
2022/09/08 12:06:43;;;;;;;;;;;;;;;;;;4995653;28;8458;-83
2022/09/08 12:09:27;;;;;;;;;;;;;;;;;;4995710;28;8343;-83
2022/09/08 12:11:56;;;;;;;;;;;;;;;;;;4995517;28;8784;-82
2022/09/08 12:14:33;;;;;;;;;;;;;;;;;;4995322;28;7179;-81
2022/09/08 12:17:11;;;;;;;;;;;;;;;;;;4995040;28;6931;-81
2022/09/08 12:19:39;;;;;;;;;;;;;;;;;;4995244;28;8443;-81
2022/09/08 12:22:18;;;;;;;;;;;;;;;;;;4994778;28;8482;-82
2022/09/08 12:25:07;;;;;;;;;;;;;;;;;;5011507;28;8443;-82
2022/09/08 12:27:52;;;;;;;;;;;;;;;;;;5011729;28;8531;-82
2022/09/08 12:30:40;;;;;;;;;;;;;;;;;;4995612;28;7088;-81
2022/09/08 12:33:15;;;;;;;;;;;;;;;;;;4967382;28;7201;-81
2022/09/08 12:35:49;;;;;;;;;;;;;;;;;;4994930;28;7197;-81
2022/09/08 12:38:30;;;;;;;;;;;;;;;;;;5011080;28;7445;-79
2022/09/08 12:41:12;;;;;;;;;;;;;;;;;;5011311;28;8456;-81
2022/09/08 12:43:37;;;;;;;;;;;;;;;;;;5011276;28;7337;-82
2022/09/08 12:46:03;;;;;;;;;;;;;;;;;;4995007;28;8414;-82
2022/09/08 12:48:34;;;;;;;;;;;;;;;;;;4994866;28;8436;-82
2022/09/08 12:51:00;;;;;;;;;;;;;;;;;;4994679;28;6835;-80
2022/09/08 12:53:49;;;;;;;;;;;;;;;;;;4995132;28;7073;-81
2022/09/08 12:56:21;;;;;;;;;;;;;;;;;;4986582;28;8416;-81
2022/09/08 12:59:05;;;;;;;;;;;;;;;;;;4994817;28;8925;-82
2022/09/08 13:01:40;;;;;;;;;;;;;;;;;;4995095;28;7011;-81
2022/09/08 13:04:17;;;;;;;;;;;;;;;;;;5011024;28;8773;-81
2022/09/08 13:07:08;;;;;;;;;;;;;;;;;;4994229;28;7159;-82
2022/09/08 13:09:39;;;;;;;;;;;;;;;;;;5010805;28;7306;-83
2022/09/08 13:12:25;;;;;;;;;;;;;;;;;;5010560;28;7283;-82
2022/09/08 13:14:50;;;;;;;;;;;;;;;;;;4993941;28;8565;-82
2022/09/08 13:17:23;;;;;;;;;;;;;;;;;;4994587;28;7047;-82
2022/09/08 13:20:18;;;;;;;;;;;;;;;;;;5011093;28;8471;-81
2022/09/08 13:22:53;;;;;;;;;;;;;;;;;;4981548;28;8473;-83
2022/09/08 13:25:41;;;;;;;;;;;;;;;;;;5010431;28;8593;-82
2022/09/08 13:28:07;;;;;;;;;;;;;;;;;;4967078;28;8339;-82
2022/09/08 13:30:59;;;;;;;;;;;;;;;;;;4994257;28;8438;-81
2022/09/08 13:33:27;;;;;;;;;;;;;;;;;;4971990;28;8804;-83
2022/09/08 13:35:56;;;;;;;;;;;;;;;;;;4993836;28;8446;-82
2022/09/08 13:38:21;;;;;;;;;;;;;;;;;;4993839;28;8756;-82
2022/09/08 13:41:05;;;;;;;;;;;;;;;;;;4994034;28;8459;-82
2022/09/08 13:43:34;;;;;;;;;;;;;;;;;;4993961;28;8759;-81
2022/09/08 13:46:14;;;;;;;;;;;;;;;;;;4993866;28;8645;-83
2022/09/08 13:48:59;;;;;;;;;;;;;;;;;;4997544;28;8439;-80
2022/09/08 13:51:43;;;;;;;;;;;;;;;;;;4997743;28;7072;-82
2022/09/08 13:54:30;;;;;;;;;;;;;;;;;;4997918;28;8833;-82
2022/09/08 13:57:28;;;;;;;;;;;;;;;;;;5014384;28;7033;-78
2022/09/08 13:59:56;;;;;;;;;;;;;;;;;;4965733;28;8801;-83
2022/09/08 14:02:41;;;;;;;;;;;;;;;;;;4998243;28;8458;-84
2022/09/08 14:05:28;;;;;;;;;;;;;;;;;;4997981;28;8656;-84
2022/09/08 14:08:02;;;;;;;;;;;;;;;;;;5013840;28;8706;-82
2022/09/08 14:10:40;;;;;;;;;;;;;;;;;;4998154;28;8469;-84
2022/09/08 14:13:14;;;;;;;;;;;;;;;;;;4997269;28;7196;-82
2022/09/08 14:15:43;;;;;;;;;;;;;;;;;;4997807;28;8430;-84
2022/09/08 14:18:15;;;;;;;;;;;;;;;;;;4996696;28;8358;-84
2022/09/08 14:20:52;;;;;;;;;;;;;;;;;;4995959;28;7084;-83
2022/09/08 14:23:37;;;;;;;;;;;;;;;;;;4995342;28;8491;-83
2022/09/08 14:26:32;;;;;;;;;;;;;;;;;;5011896;28;7251;-83
2022/09/08 14:29:07;;;;;;;;;;;;;;;;;;4982604;28;7086;-84
2022/09/08 14:31:36;;;;;;;;;;;;;;;;;;4995477;28;7256;-83
2022/09/08 14:34:27;;;;;;;;;;;;;;;;;;4995884;28;8416;-84
2022/09/08 14:37:02;;;;;;;;;;;;;;;;;;4993925;28;8652;-84
2022/09/08 14:39:40;;;;;;;;;;;;;;;;;;5013496;28;8453;-84
2022/09/08 14:42:32;;;;;;;;;;;;;;;;;;4997083;28;8451;-84
2022/09/08 14:45:18;;;;;;;;;;;;;;;;;;4975272;28;7226;-83
2022/09/08 14:47:53;;;;;;;;;;;;;;;;;;5013726;28;7331;-82
2022/09/08 14:50:34;;;;;;;;;;;;;;;;;;4996801;28;8642;-84
2022/09/08 14:53:01;;;;;;;;;;;;;;;;;;4996577;28;8917;-84
2022/09/08 14:55:45;;;;;;;;;;;;;;;;;;4996460;28;9141;-84
2022/09/08 14:58:34;;;;;;;;;;;;;;;;;;4996369;28;8488;-84
2022/09/08 15:01:14;;;;;;;;;;;;;;;;;;5012596;28;7669;-84
2022/09/08 15:03:43;;;;;;;;;;;;;;;;;;5012802;28;7131;-83
2022/09/08 15:06:10;;;;;;;;;;;;;;;;;;5012876;28;7233;-81
2022/09/08 15:08:39;;;;;;;;;;;;;;;;;;5012582;28;7319;-84
2022/09/08 15:11:17;;;;;;;;;;;;;;;;;;5013024;28;7461;-83
2022/09/08 15:14:02;;;;;;;;;;;;;;;;;;5013152;28;7327;-84
2022/09/08 15:16:29;;;;;;;;;;;;;;;;;;5012676;28;7345;-85
2022/09/08 15:18:59;;;;;;;;;;;;;;;;;;4996278;28;7695;-83
2022/09/08 15:21:27;;;;;;;;;;;;;;;;;;4995992;28;7094;-84
2022/09/08 15:23:55;;;;;;;;;;;;;;;;;;5012782;28;8473;-84
2022/09/08 15:26:26;;;;;;;;;;;;;;;;;;5012547;28;8558;-83
2022/09/08 15:29:01;;;;;;;;;;;;;;;;;;4996285;28;8715;-83
2022/09/08 15:31:38;;;;;;;;;;;;;;;;;;4996328;28;8831;-84
2022/09/08 15:34:07;;;;;;;;;;;;;;;;;;5012574;28;8437;-84
2022/09/08 15:36:49;;;;;;;;;;;;;;;;;;4996082;28;8517;-84
2022/09/08 15:39:26;;;;;;;;;;;;;;;;;;5012443;28;8418;-86
2022/09/08 15:42:13;;;;;;;;;;;;;;;;;;5014074;28;8391;-86
2022/09/08 15:44:56;;;;;;;;;;;;;;;;;;5012074;28;7085;-85
2022/09/08 15:47:33;;;;;;;;;;;;;;;;;;5012432;28;8535;-83
2022/09/08 15:50:04;;;;;;;;;;;;;;;;;;5012466;28;8827;-84
2022/09/08 15:52:39;;;;;;;;;;;;;;;;;;4995519;28;8543;-82
2022/09/08 15:55:12;;;;;;;;;;;;;;;;;;4996298;28;8417;-83
2022/09/08 15:58:01;;;;;;;;;;;;;;;;;;5012017;28;8587;-84
2022/09/08 16:00:30;;;;;;;;;;;;;;;;;;5011803;28;8565;-84
2022/09/08 16:02:56;;;;;;;;;;;;;;;;;;4995389;28;8437;-83
2022/09/08 16:05:30;;;;;;;;;;;;;;;;;;4995698;28;8583;-84
2022/09/08 16:08:20;;;;;;;;;;;;;;;;;;5012019;28;7103;-85
2022/09/08 16:11:01;;;;;;;;;;;;;;;;;;4987815;28;7442;-84
2022/09/08 16:13:31;;;;;;;;;;;;;;;;;;4995194;28;7186;-84
2022/09/08 16:16:00;;;;;;;;;;;;;;;;;;5011869;28;8853;-84
2022/09/08 16:18:31;;;;;;;;;;;;;;;;;;5011881;28;7207;-84
2022/09/08 16:21:18;;;;;;;;;;;;;;;;;;5011830;28;8467;-83
2022/09/08 16:23:50;;;;;;;;;;;;;;;;;;5011142;28;9077;-84
2022/09/08 16:26:20;;;;;;;;;;;;;;;;;;4995476;28;8412;-84
2022/09/08 16:28:46;;;;;;;;;;;;;;;;;;4995927;28;9475;-84
2022/09/08 16:31:21;;;;;;;;;;;;;;;;;;4994913;28;7181;-83
2022/09/08 16:34:14;;;;;;;;;;;;;;;;;;5011828;28;7147;-86
2022/09/08 16:36:43;;;;;;;;;;;;;;;;;;4980436;28;7076;-85
2022/09/08 16:39:08;;;;;;;;;;;;;;;;;;5010984;28;8763;-85
2022/09/08 16:41:40;;;;;;;;;;;;;;;;;;4994937;28;9344;-85
2022/09/08 16:44:09;;;;;;;;;;;;;;;;;;4994463;28;6827;-83
2022/09/08 16:46:37;;;;;;;;;;;;;;;;;;4994305;28;8852;-85
2022/09/08 16:49:21;;;;;;;;;;;;;;;;;;5009745;28;8835;-82
2022/09/08 16:51:49;;;;;;;;;;;;;;;;;;4994062;28;7210;-84
2022/09/08 16:54:34;;;;;;;;;;;;;;;;;;4994540;28;7123;-86
2022/09/08 16:57:14;;;;;;;;;;;;;;;;;;5011104;28;8323;-84
2022/09/08 16:59:50;;;;;;;;;;;;;;;;;;5011341;28;8754;-82
2022/09/08 17:02:34;;;;;;;;;;;;;;;;;;4995054;28;8559;-83
2022/09/08 17:05:26;;;;;;;;;;;;;;;;;;5010722;28;6967;-82
2022/09/08 17:07:59;;;;;;;;;;;;;;;;;;4991448;28;8679;-83
2022/09/08 17:10:50;;;;;;;;;;;;;;;;;;5010990;28;7222;-83
2022/09/08 17:13:23;;;;;;;;;;;;;;;;;;5010671;28;7160;-83
2022/09/08 17:15:49;;;;;;;;;;;;;;;;;;5011229;28;7296;-82
2022/09/08 17:18:23;;;;;;;;;;;;;;;;;;4994338;28;8400;-83
2022/09/08 17:21:07;;;;;;;;;;;;;;;;;;4994407;28;8507;-83
2022/09/08 17:23:33;;;;;;;;;;;;;;;;;;4993636;28;8530;-84
2022/09/08 17:25:58;;;;;;;;;;;;;;;;;;5010629;28;8597;-83
2022/09/08 17:28:30;;;;;;;;;;;;;;;;;;4994542;28;7167;-82
2022/09/08 17:31:18;;;;;;;;;;;;;;;;;;4994064;28;8748;-83
2022/09/08 17:34:03;;;;;;;;;;;;;;;;;;5010214;28;9010;-83
2022/09/08 17:36:44;;;;;;;;;;;;;;;;;;4994407;28;8758;-84
2022/09/08 17:39:33;;;;;;;;;;;;;;;;;;5010694;28;8849;-83
2022/09/08 17:42:05;;;;;;;;;;;;;;;;;;4986028;28;9677;-83
2022/09/08 17:44:49;;;;;;;;;;;;;;;;;;5006883;28;7291;-83
2022/09/08 17:47:30;;;;;;;;;;;;;;;;;;5001960;28;8999;-83
2022/09/08 17:50:13;;;;;;;;;;;;;;;;;;5007042;28;7076;-83